Portada
METAR-TAF:

METAR-TAF

Aeroports :

Piacenza, Itàlia

latitud: 44-55N, longitud: 009-44E, altitud: 134 m

Observació

L'informe es va fer fa 1 hora i 4 minuts, a les 17:55 UTC
Vent 2 kt del Oest/Nord-Oest
Temperatura 25°C
Humitat 50%
Pressió 1009 hPa
Visibilitat 10 km o més
Núvols disperses a una alçada de 7000 ft

METAR: LIMS 021755Z 29002KT 9999 SCT070 25/14 Q1009 RMK BKN BKN110 VIS MIN 9999 WIND THR30 30002KT BLU

Hora: 20:59 (18:59 UTC)


TAF: manca

Observacions i pronòstics meteorològics de més de 4000 aeroports (METAR i TAF).

Les estacions disponibles són els punts grocs i vermells al mapa.

Posi el ratolí al punt desitjat per veure el nom de l'estació.

Feu clic per veure les observacions i els pronòstics meteorològics.

Per canviar el mapa: feu clic els botons verds amb una creu de color negre per apropar; al botó verd amb un guió per allunyar la imatge; o en les fletxes verdes per a mapes adjacents.


METAR-TAF: